Aviation Digital Data Service (ADDS)

Output produced by METARs form (1103 UTC 30 April 2017)
found at http://www.aviationweather.gov/adds/metars/
 
SOCA 301100Z AUTO 12003KT 070V160 4900 RA BR FEW016/// BKN074/// OVC098/// ///TCU 24/23 Q1015 TEMPO SCT010CB BKN015
TAF SOCA 301100Z 3012/0112 08012KT 9999 BKN013 BKN030 
     BECMG 3022/3024 VRB02KT 
     PROB30 
     TEMPO 3015/0112 1000 TSRA FEW005 SCT010CB SCT012TCU BKN015 
     PROB40 
     TEMPO 3012/0112 3000 SHRA SCT015TCU BKN035